Harrisburg, Oregon
Current Conditions -  °F | °C
As of 12:30 AM on Tuesday 27 Jan 2015 (Local Time) from KEUG Reporting Station
Haze Haze  
Wind Chill: 42°   Ceiling: 700
Heat Index: 42°   Visibility: 0.25mi
Dew Point: 41°   Wind: 3mph
Humidity: 96%   Direction: 320°NW
Pressure: 30.04"   Gusts: NA
Location:  44.27°N, 123.17°W
Report Text: KEUG 270830Z AUTO 32003KT 1/4SM R16R/P6000FT BR OVC007 06/05 A3004 RMK AO2 SFC VIS 4 CIG 002 RNW 34 T00560050
Loading
Personal Weather Stations






























Interactive Weather Map New forecast layout! Learn more

10-Day Weather Forecast

Advertisements
Track Severe Weather on mobile